createdAt,value
2018-09-10T00:00:13.623Z,3.43
2018-09-10T00:04:17.956Z,3.60
2018-09-10T00:08:22.141Z,4.20
2018-09-10T00:12:26.372Z,3.40
2018-09-10T00:16:30.663Z,3.20
2018-09-10T00:20:35.176Z,3.83
2018-09-10T00:24:39.501Z,3.80
2018-09-10T00:28:43.683Z,4.60
2018-09-10T00:32:47.976Z,4.00
2018-09-10T00:36:52.184Z,4.30
2018-09-10T00:40:56.408Z,2.83
2018-09-10T00:45:00.597Z,4.10
2018-09-10T00:49:04.893Z,4.40
2018-09-10T00:53:09.098Z,4.20
2018-09-10T00:57:13.292Z,4.50
2018-09-10T01:01:17.572Z,3.57
2018-09-10T01:05:21.772Z,3.80
2018-09-10T01:09:26.028Z,3.80
2018-09-10T01:13:30.467Z,3.37
2018-09-10T01:17:34.653Z,4.20
2018-09-10T01:21:38.908Z,3.07
2018-09-10T01:25:43.104Z,3.00
2018-09-10T01:29:47.689Z,3.37
2018-09-10T01:33:57.263Z,3.63
2018-09-10T01:38:01.693Z,3.90
2018-09-10T01:42:06.079Z,3.83
2018-09-10T01:46:10.258Z,4.30
2018-09-10T01:50:14.541Z,3.50
2018-09-10T01:54:19.125Z,4.00
2018-09-10T01:58:23.329Z,4.07
2018-09-10T02:02:27.622Z,3.60
2018-09-10T02:06:31.877Z,4.00
2018-09-10T02:10:36.225Z,3.73
2018-09-10T02:14:40.441Z,3.80
2018-09-10T02:18:45.933Z,4.03
2018-09-10T02:22:50.247Z,4.20
2018-09-10T02:26:54.490Z,3.70
2018-09-10T02:30:58.744Z,3.90
2018-09-10T02:35:03.137Z,3.47
2018-09-10T02:39:08.281Z,4.47
2018-09-10T02:43:12.632Z,2.83
2018-09-10T02:47:16.836Z,3.90
2018-09-10T02:51:21.176Z,4.40
2018-09-10T02:55:25.460Z,4.23
2018-09-10T02:59:29.763Z,4.90
2018-09-10T03:03:34.208Z,5.37
2018-09-10T03:07:38.470Z,4.47
2018-09-10T03:11:42.744Z,5.13
2018-09-10T03:15:47.107Z,4.40
2018-09-10T03:19:51.377Z,3.47
2018-09-10T03:23:55.705Z,5.30
2018-09-10T03:28:01.150Z,4.17
2018-09-10T03:32:05.346Z,3.97
2018-09-10T03:36:09.792Z,3.67
2018-09-10T03:40:14.025Z,4.93
2018-09-10T03:44:18.435Z,3.67
2018-09-10T03:48:22.739Z,3.77
2018-09-10T03:52:27.075Z,3.70
2018-09-10T03:56:31.654Z,3.60
2018-09-10T04:00:35.969Z,4.67
2018-09-10T04:04:40.208Z,4.67
2018-09-10T04:08:44.644Z,5.33
2018-09-10T04:12:48.835Z,4.00
2018-09-10T04:16:53.136Z,3.13
2018-09-10T04:20:57.456Z,3.83
2018-09-10T04:25:01.666Z,4.63
2018-09-10T04:29:05.904Z,4.97
2018-09-10T04:33:10.162Z,5.30
2018-09-10T04:37:14.354Z,5.30
2018-09-10T04:41:18.597Z,5.10
2018-09-10T04:45:22.849Z,4.77
2018-09-10T04:49:27.118Z,4.50
2018-09-10T04:53:31.696Z,4.60
2018-09-10T04:57:36.095Z,4.70
2018-09-10T05:01:40.679Z,4.78
2018-09-10T05:05:45.006Z,4.60
2018-09-10T05:09:49.483Z,4.03
2018-09-10T05:13:53.925Z,4.50
2018-09-10T05:18:00.366Z,4.40
2018-09-10T05:22:06.228Z,3.77
2018-09-10T05:26:10.541Z,5.27
2018-09-10T05:30:14.886Z,5.03
2018-09-10T05:34:20.160Z,4.40
2018-09-10T05:38:24.380Z,5.40
2018-09-10T05:42:28.636Z,4.93
2018-09-10T05:46:32.873Z,6.47
2018-09-10T05:50:37.119Z,5.17
2018-09-10T05:54:41.327Z,4.30
2018-09-10T05:58:45.557Z,5.00
2018-09-10T06:02:50.032Z,6.50
2018-09-10T06:06:54.338Z,6.17
2018-09-10T06:10:58.622Z,5.70
2018-09-10T06:15:02.907Z,6.63
2018-09-10T06:19:07.198Z,6.37
2018-09-10T06:23:11.572Z,6.23
2018-09-10T06:27:15.817Z,5.63
2018-09-10T06:31:20.063Z,4.40
2018-09-10T06:35:24.302Z,5.43
2018-09-10T06:39:28.528Z,5.30
2018-09-10T06:43:32.722Z,5.50
2018-09-10T06:47:37.974Z,5.03
2018-09-10T06:51:42.850Z,4.80
2018-09-10T06:55:47.032Z,4.63
2018-09-10T06:59:52.682Z,4.27
2018-09-10T07:03:57.020Z,4.40
2018-09-10T07:08:01.440Z,4.80
2018-09-10T07:12:05.855Z,5.23
2018-09-10T07:16:10.114Z,4.03
2018-09-10T07:20:14.386Z,4.60
2018-09-10T07:24:18.721Z,3.40
2018-09-10T07:28:23.041Z,3.70
2018-09-10T07:32:27.244Z,4.37
2018-09-10T07:36:31.566Z,5.10
2018-09-10T07:40:35.821Z,4.30
2018-09-10T07:44:40.534Z,3.97
2018-09-10T07:48:44.861Z,4.50
2018-09-10T07:52:49.274Z,4.70
2018-09-10T07:56:53.878Z,4.27
2018-09-10T08:00:58.177Z,3.93
2018-09-10T08:05:02.474Z,4.57
2018-09-10T08:09:08.609Z,4.30
2018-09-10T08:13:12.766Z,3.87
2018-09-10T08:17:17.039Z,4.40
2018-09-10T08:21:21.318Z,3.97
2018-09-10T08:25:25.557Z,4.73
2018-09-10T08:29:29.781Z,3.00
2018-09-10T08:33:34.160Z,4.30
2018-09-10T08:37:38.467Z,4.23
2018-09-10T08:41:42.684Z,3.43
2018-09-10T08:45:46.921Z,4.07
2018-09-10T08:49:51.220Z,4.17
2018-09-10T08:53:55.436Z,4.40
2018-09-10T08:57:59.723Z,3.27
2018-09-10T09:02:04.421Z,3.70
2018-09-10T09:06:09.197Z,3.47
2018-09-10T09:10:13.636Z,2.73
2018-09-10T09:14:18.237Z,3.17
2018-09-10T09:18:22.701Z,3.10
2018-09-10T09:22:27.005Z,3.57
2018-09-10T09:26:31.221Z,3.03
2018-09-10T09:30:35.792Z,3.50
2018-09-10T09:35:00.493Z,3.47
2018-09-10T09:39:11.020Z,3.13
2018-09-10T09:43:20.508Z,3.10
2018-09-10T09:47:24.785Z,3.13
2018-09-10T09:51:29.485Z,2.57
2018-09-10T09:55:33.704Z,2.60
2018-09-10T09:59:38.205Z,2.70
2018-09-10T10:03:48.049Z,2.57
2018-09-10T10:07:52.279Z,2.60
2018-09-10T10:11:56.551Z,2.60
2018-09-10T10:16:02.101Z,2.30
2018-09-10T10:20:06.940Z,2.50
2018-09-10T10:24:11.774Z,2.00
2018-09-10T10:28:16.698Z,2.27
2018-09-10T10:32:21.285Z,2.67
2018-09-10T10:36:25.595Z,3.30
2018-09-10T10:40:29.817Z,3.67
2018-09-10T10:44:34.133Z,2.53
2018-09-10T10:48:38.336Z,3.23
2018-09-10T10:52:42.726Z,1.93
2018-09-10T10:56:46.977Z,2.50
2018-09-10T11:00:51.505Z,2.50
2018-09-10T11:04:56.067Z,2.80
2018-09-10T11:09:00.344Z,3.03
2018-09-10T11:13:04.545Z,2.60
2018-09-10T11:17:08.886Z,2.97
2018-09-10T11:21:13.085Z,2.50
2018-09-10T11:25:17.612Z,2.57
2018-09-10T11:29:21.944Z,3.07
2018-09-10T11:33:26.284Z,2.40
2018-09-10T11:37:30.512Z,2.53
2018-09-10T11:41:34.817Z,2.63
2018-09-10T11:45:40.192Z,2.20
2018-09-10T11:49:44.837Z,2.50
2018-09-10T11:53:49.309Z,2.23
2018-09-10T11:57:53.524Z,3.17
2018-09-10T12:01:57.804Z,2.30
2018-09-10T12:06:03.077Z,3.03
2018-09-10T12:10:07.749Z,2.60
2018-09-10T12:14:12.444Z,2.20
2018-09-10T12:18:17.167Z,2.60
2018-09-10T12:22:21.816Z,2.33
2018-09-10T12:26:26.555Z,2.90
2018-09-10T12:30:31.464Z,2.27
2018-09-10T12:34:36.966Z,2.00
2018-09-10T12:38:42.410Z,2.77
2018-09-10T12:42:47.513Z,2.07
2018-09-10T12:46:52.232Z,2.20
2018-09-10T12:50:56.840Z,1.70
2018-09-10T12:55:01.749Z,2.10
2018-09-10T12:59:07.102Z,2.00
2018-09-10T13:03:11.368Z,2.40
2018-09-10T13:07:16.259Z,1.90
2018-09-10T13:11:20.493Z,1.90
2018-09-10T13:15:27.071Z,2.13
2018-09-10T13:19:31.287Z,1.90
2018-09-10T13:23:35.534Z,2.53
2018-09-10T13:27:39.817Z,1.70
2018-09-10T13:31:44.099Z,1.97
2018-09-10T13:35:48.303Z,1.80
2018-09-10T13:39:52.529Z,2.20
2018-09-10T13:43:56.772Z,2.03
2018-09-10T13:48:01.014Z,2.13
2018-09-10T13:52:05.226Z,1.90
2018-09-10T13:56:09.477Z,2.23
2018-09-10T14:00:14.058Z,2.20
2018-09-10T14:04:18.386Z,2.50
2018-09-10T14:08:22.722Z,2.33
2018-09-10T14:12:27.025Z,2.10
2018-09-10T14:16:31.255Z,2.47
2018-09-10T14:20:35.466Z,2.53
2018-09-10T14:24:39.775Z,2.50
2018-09-10T14:28:44.093Z,2.60
2018-09-10T14:32:48.429Z,2.53
2018-09-10T14:36:52.749Z,1.87
2018-09-10T14:40:57.009Z,2.37
2018-09-10T14:45:01.189Z,2.40
2018-09-10T14:49:05.465Z,2.53
2018-09-10T14:53:09.680Z,2.77
2018-09-10T14:57:14.068Z,2.43
2018-09-10T15:01:18.289Z,3.20
2018-09-10T15:05:23.077Z,2.53
2018-09-10T15:09:27.322Z,2.40
2018-09-10T15:13:31.618Z,2.47
2018-09-10T15:17:36.001Z,2.47
2018-09-10T15:21:40.275Z,2.60
2018-09-10T15:25:44.470Z,2.37
2018-09-10T15:29:48.684Z,2.70
2018-09-10T15:33:52.950Z,3.27
2018-09-10T15:37:57.148Z,2.50
2018-09-10T15:42:01.415Z,3.13
2018-09-10T15:46:05.635Z,2.30
2018-09-10T15:50:09.981Z,2.90
2018-09-10T15:54:14.243Z,2.87
2018-09-10T15:58:18.856Z,2.60
2018-09-10T16:02:23.371Z,3.33
2018-09-10T16:06:27.665Z,2.53
2018-09-10T16:10:32.176Z,2.30
2018-09-10T16:14:36.449Z,2.80
2018-09-10T16:18:40.857Z,2.40
2018-09-10T16:22:45.823Z,3.07
2018-09-10T16:26:50.029Z,3.27
2018-09-10T16:30:55.388Z,2.63
2018-09-10T16:34:59.709Z,3.20
2018-09-10T16:39:04.601Z,2.63
2018-09-10T16:43:09.172Z,3.33
2018-09-10T16:47:13.496Z,2.30
2018-09-10T16:51:18.306Z,3.10
2018-09-10T16:55:22.539Z,2.60
2018-09-10T16:59:27.356Z,3.20
2018-09-10T17:03:31.701Z,2.83
2018-09-10T17:07:35.953Z,3.40
2018-09-10T17:11:40.204Z,3.23
2018-09-10T17:15:44.428Z,2.83
2018-09-10T17:19:48.634Z,3.27
2018-09-10T17:23:52.892Z,2.87
2018-09-10T17:27:57.187Z,3.33
2018-09-10T17:32:01.455Z,3.70
2018-09-10T17:36:05.665Z,3.57
2018-09-10T17:40:09.916Z,3.40
2018-09-10T17:44:14.157Z,3.00
2018-09-10T17:48:18.451Z,3.73
2018-09-10T17:52:22.811Z,2.50
2018-09-10T17:56:27.123Z,3.30
2018-09-10T18:00:31.351Z,3.27
2018-09-10T18:04:35.574Z,3.47
2018-09-10T18:08:40.024Z,3.50
2018-09-10T18:12:44.692Z,3.47
2018-09-10T18:16:48.933Z,2.70
2018-09-10T18:20:53.225Z,3.97
2018-09-10T18:24:57.729Z,3.23
2018-09-10T18:29:02.025Z,2.90
2018-09-10T18:33:06.452Z,3.80
2018-09-10T18:37:10.675Z,3.27
2018-09-10T18:41:14.980Z,3.60
2018-09-10T18:45:19.295Z,3.33
2018-09-10T18:49:23.618Z,4.63
2018-09-10T18:53:27.970Z,3.60
2018-09-10T18:57:32.346Z,3.60
2018-09-10T19:01:36.664Z,3.17
2018-09-10T19:05:40.886Z,3.73
2018-09-10T19:09:45.867Z,3.43
2018-09-10T19:13:50.197Z,3.53
2018-09-10T19:17:54.610Z,3.43
2018-09-10T19:21:59.634Z,3.00
2018-09-10T19:26:04.286Z,3.60
2018-09-10T19:30:08.600Z,4.27
2018-09-10T19:34:13.062Z,3.53
2018-09-10T19:38:17.637Z,3.90
2018-09-10T19:42:21.993Z,3.53
2018-09-10T19:46:27.423Z,4.10
2018-09-10T19:50:32.169Z,3.87
2018-09-10T19:54:36.672Z,4.23
2018-09-10T19:58:41.552Z,3.27
2018-09-10T20:02:46.034Z,3.60
2018-09-10T20:06:50.619Z,3.80
2018-09-10T20:10:54.853Z,4.00
2018-09-10T20:14:59.860Z,2.83
2018-09-10T20:19:04.359Z,3.90
2018-09-10T20:23:09.010Z,3.57
2018-09-10T20:27:13.602Z,3.80
2018-09-10T20:31:18.278Z,4.10
2018-09-10T20:35:22.724Z,3.73
2018-09-10T20:39:27.462Z,3.53
2018-09-10T20:43:31.850Z,3.80
2018-09-10T20:47:36.380Z,3.83
2018-09-10T20:51:40.667Z,3.30
2018-09-10T20:55:45.022Z,3.57
2018-09-10T20:59:49.243Z,4.30
2018-09-10T21:03:54.761Z,4.37
2018-09-10T21:07:58.954Z,3.53
2018-09-10T21:12:03.723Z,3.90
2018-09-10T21:16:08.037Z,4.70
2018-09-10T21:20:12.326Z,4.23
2018-09-10T21:24:16.512Z,4.17
2018-09-10T21:28:20.689Z,4.57
2018-09-10T21:32:24.971Z,5.13
2018-09-10T21:36:29.190Z,4.23
2018-09-10T21:40:33.517Z,4.17
2018-09-10T21:44:37.720Z,4.17
2018-09-10T21:48:41.985Z,4.70
2018-09-10T21:52:46.188Z,4.20
2018-09-10T21:56:50.964Z,3.43
2018-09-10T22:00:58.180Z,3.87
2018-09-10T22:05:02.441Z,4.03
2018-09-10T22:09:07.945Z,3.90
2018-09-10T22:13:12.600Z,4.43
2018-09-10T22:17:16.770Z,4.40
2018-09-10T22:21:21.045Z,3.83
2018-09-10T22:25:25.278Z,5.03
2018-09-10T22:29:29.480Z,4.23
2018-09-10T22:33:33.777Z,4.40
2018-09-10T22:37:37.988Z,4.30
2018-09-10T22:41:42.501Z,3.40
2018-09-10T22:45:46.707Z,3.60
2018-09-10T22:49:50.971Z,4.50
2018-09-10T22:53:55.296Z,3.73
2018-09-10T22:57:59.632Z,3.77
2018-09-10T23:02:03.867Z,5.13
2018-09-10T23:06:08.081Z,4.20
2018-09-10T23:10:12.332Z,3.97
2018-09-10T23:14:16.622Z,4.43
2018-09-10T23:18:20.828Z,4.60
2018-09-10T23:22:25.184Z,5.07
2018-09-10T23:26:29.540Z,5.17
2018-09-10T23:30:33.802Z,4.17
2018-09-10T23:34:38.094Z,3.60
2018-09-10T23:38:42.298Z,4.50
2018-09-10T23:42:46.516Z,4.03
2018-09-10T23:46:50.722Z,5.30
2018-09-10T23:50:55.116Z,3.03
2018-09-10T23:54:59.318Z,4.37
2018-09-10T23:59:03.627Z,4.47
